Time;durP1;ratioP1;P1;durP2;ratioP2;P2;SDS_P1;SDS_P2;PMS_P1;PMS_P2;Temp;Humidity;BMP_temperature;BMP_pressure;BME280_temperature;BME280_humidity;BME280_pressure;Samples;Min_cycle;Max_cycle;Signal;HPM_P1;HPM_P2
2024/01/09 00:01:50;;;;;;;;;;;-2.60;99.90;;;;;;5053368;28;19934;-74
2024/01/09 00:04:15;;;;;;;;;;;-1.50;99.90;;;;;;5070803;28;19916;-73
2024/01/09 00:06:41;;;;;;;;;;;-2.60;99.90;;;;;;5054943;28;20351;-73
2024/01/09 00:09:06;;;;;;;;;;;-2.60;99.90;;;;;;5053095;28;19954;-73
2024/01/09 00:11:32;;;;;;;;;;;-2.60;99.90;;;;;;5071603;28;19920;-73
2024/01/09 00:13:57;;;;;;;;;;;-2.70;99.90;;;;;;5051876;28;20003;-74
2024/01/09 00:16:23;;;;;;;;;;;-2.70;99.90;;;;;;5054261;28;19955;-74
2024/01/09 00:18:54;;;;;;;;;;;-2.70;99.90;;;;;;5053127;28;19920;-73
2024/01/09 00:21:20;;;;;;;;;;;-2.70;99.90;;;;;;5034298;28;20396;-73
2024/01/09 00:23:45;;;;;;;;;;;-2.70;99.90;;;;;;5035537;28;19968;-74
2024/01/09 00:26:12;;;;;;;;;;;-2.70;99.90;;;;;;5044317;28;20254;-74
2024/01/09 00:28:37;;;;;;;;;;;-1.40;99.90;;;;;;5051633;28;19928;-73
2024/01/09 00:31:03;;;;;;;;;;;-2.70;99.90;;;;;;5032954;28;20443;-74
2024/01/09 00:33:28;;;;;;;;;;;-2.70;99.90;;;;;;5033827;28;20339;-73
2024/01/09 00:35:54;;;;;;;;;;;-2.10;99.90;;;;;;5034104;28;20007;-74
2024/01/09 00:38:19;;;;;;;;;;;-2.80;99.90;;;;;;5059393;28;19924;-73
2024/01/09 00:40:45;;;;;;;;;;;-2.80;99.90;;;;;;5060224;28;19925;-74
2024/01/09 00:43:13;;;;;;;;;;;-2.80;99.90;;;;;;5038504;28;19963;-73
2024/01/09 00:45:39;;;;;;;;;;;-2.80;99.90;;;;;;5042402;28;20015;-74
2024/01/09 00:48:05;;;;;;;;;;;-2.80;99.90;;;;;;5047766;28;20020;-74
2024/01/09 00:50:30;;;;;;;;;;;-2.80;99.90;;;;;;5063050;28;19921;-74
2024/01/09 00:52:56;;;;;;;;;;;-2.90;99.90;;;;;;5049938;28;20307;-73
2024/01/09 00:55:21;;;;;;;;;;;-2.90;99.90;;;;;;5046168;28;19920;-73
2024/01/09 00:57:47;;;;;;;;;;;-2.50;99.90;;;;;;5038775;28;20459;-74
2024/01/09 01:00:13;;;;;;;;;;;-2.10;99.90;;;;;;5039101;28;19991;-73
2024/01/09 01:02:38;;;;;;;;;;;-2.90;99.90;;;;;;5051788;28;19935;-74
2024/01/09 01:05:04;;;;;;;;;;;-3.00;99.90;;;;;;5046342;28;20241;-75
2024/01/09 01:07:29;;;;;;;;;;;-2.90;99.90;;;;;;5050450;28;19928;-74
2024/01/09 01:09:55;;;;;;;;;;;-2.80;99.90;;;;;;5034125;28;20034;-74
2024/01/09 01:12:20;;;;;;;;;;;-3.00;99.90;;;;;;5052654;28;19920;-73
2024/01/09 01:14:46;;;;;;;;;;;-2.80;99.90;;;;;;5050283;28;19924;-73
2024/01/09 01:17:12;;;;;;;;;;;-3.00;99.90;;;;;;5051619;28;20228;-74
2024/01/09 01:19:37;;;;;;;;;;;-3.00;99.90;;;;;;5050493;28;20127;-73
2024/01/09 01:22:03;;;;;;;;;;;-3.00;99.90;;;;;;5034024;28;19928;-73
2024/01/09 01:24:28;;;;;;;;;;;-3.10;99.90;;;;;;5036728;28;19927;-74
2024/01/09 01:26:54;;;;;;;;;;;-3.20;99.90;;;;;;5051872;28;19927;-73
2024/01/09 01:29:19;;;;;;;;;;;-3.10;99.90;;;;;;5037722;28;20375;-73
2024/01/09 01:31:45;;;;;;;;;;;-2.70;99.90;;;;;;5032883;28;19921;-73
2024/01/09 01:34:11;;;;;;;;;;;-2.90;99.90;;;;;;5065789;28;19946;-74
2024/01/09 01:36:36;;;;;;;;;;;-2.60;99.90;;;;;;5051279;28;19924;-73
2024/01/09 01:39:02;;;;;;;;;;;-3.20;99.90;;;;;;5047494;28;20436;-74
2024/01/09 01:41:28;;;;;;;;;;;-3.20;99.90;;;;;;5048810;28;19955;-73
2024/01/09 01:43:53;;;;;;;;;;;-3.20;99.90;;;;;;5049465;28;19920;-73
2024/01/09 01:46:19;;;;;;;;;;;-3.20;99.90;;;;;;5068995;28;20031;-73
2024/01/09 01:48:45;;;;;;;;;;;-3.20;99.90;;;;;;5051149;28;20042;-73
2024/01/09 01:51:11;;;;;;;;;;;-3.20;99.90;;;;;;5052079;28;19966;-73
2024/01/09 01:53:37;;;;;;;;;;;-3.20;99.90;;;;;;5068422;28;20438;-73
2024/01/09 01:56:02;;;;;;;;;;;-3.30;99.90;;;;;;5042258;28;20243;-73
2024/01/09 01:58:32;;;;;;;;;;;-3.30;99.90;;;;;;5050118;28;19927;-73
2024/01/09 02:00:59;;;;;;;;;;;-3.30;99.90;;;;;;5051427;28;20361;-73
2024/01/09 02:03:24;;;;;;;;;;;-3.30;99.90;;;;;;5068805;28;19921;-74
2024/01/09 02:05:50;;;;;;;;;;;-3.30;99.90;;;;;;5051011;28;19924;-73
2024/01/09 02:08:17;;;;;;;;;;;-3.30;99.90;;;;;;5051079;28;19963;-73
2024/01/09 02:10:42;;;;;;;;;;;-3.30;99.90;;;;;;5051564;28;19920;-73
2024/01/09 02:13:08;;;;;;;;;;;-3.40;99.90;;;;;;5050043;28;19994;-73
2024/01/09 02:15:35;;;;;;;;;;;-3.20;99.90;;;;;;5068398;28;19986;-72
2024/01/09 02:18:00;;;;;;;;;;;-3.40;99.90;;;;;;5048972;28;20452;-73
2024/01/09 02:20:26;;;;;;;;;;;-3.40;99.90;;;;;;5051800;28;20035;-73
2024/01/09 02:22:51;;;;;;;;;;;-3.40;99.90;;;;;;5051250;28;19928;-72
2024/01/09 02:25:17;;;;;;;;;;;-2.60;99.90;;;;;;5050758;28;19925;-73
2024/01/09 02:27:54;;;;;;;;;;;-3.40;99.90;;;;;;5067128;28;19946;-73
2024/01/09 02:30:20;;;;;;;;;;;-3.50;99.90;;;;;;5050590;28;19920;-73
2024/01/09 02:32:46;;;;;;;;;;;-3.40;99.90;;;;;;5049734;28;19927;-72
2024/01/09 02:35:12;;;;;;;;;;;-3.40;99.90;;;;;;5050799;28;20217;-73
2024/01/09 02:37:37;;;;;;;;;;;-3.50;99.90;;;;;;5051489;28;19978;-73
2024/01/09 02:40:03;;;;;;;;;;;-3.50;99.90;;;;;;5034882;28;20011;-73
2024/01/09 02:42:29;;;;;;;;;;;-3.50;99.90;;;;;;5062040;28;19939;-73
2024/01/09 02:44:54;;;;;;;;;;;-3.50;99.90;;;;;;5049984;28;19920;-73
2024/01/09 02:47:24;;;;;;;;;;;-3.50;99.90;;;;;;5065454;28;20296;-73
2024/01/09 02:49:49;;;;;;;;;;;-3.60;99.90;;;;;;5039262;28;19928;-73
2024/01/09 02:52:15;;;;;;;;;;;-3.60;99.90;;;;;;5052875;28;20433;-73
2024/01/09 02:54:41;;;;;;;;;;;-3.60;99.90;;;;;;5052009;28;19927;-74
2024/01/09 02:57:07;;;;;;;;;;;-3.60;99.90;;;;;;5046875;28;19924;-73
2024/01/09 02:59:32;;;;;;;;;;;-3.60;99.90;;;;;;5065324;28;19920;-73
2024/01/09 03:01:58;;;;;;;;;;;-3.60;99.90;;;;;;5050744;28;19920;-73
2024/01/09 03:04:23;;;;;;;;;;;-3.70;99.90;;;;;;5052559;28;19926;-74
2024/01/09 03:06:49;;;;;;;;;;;-3.70;99.90;;;;;;5039238;28;20007;-74
2024/01/09 03:09:16;;;;;;;;;;;-3.70;99.90;;;;;;5048673;28;19925;-74
2024/01/09 03:11:41;;;;;;;;;;;-3.70;99.90;;;;;;5051498;28;19920;-74
2024/01/09 03:14:07;;;;;;;;;;;-3.70;99.90;;;;;;5045569;28;19925;-74
2024/01/09 03:16:32;;;;;;;;;;;-3.40;99.90;;;;;;5047919;28;19928;-73
2024/01/09 03:18:58;;;;;;;;;;;-3.70;99.90;;;;;;5047583;28;20007;-73
2024/01/09 03:21:23;;;;;;;;;;;-3.70;99.90;;;;;;5046529;28;20015;-73
2024/01/09 03:23:49;;;;;;;;;;;-3.80;99.90;;;;;;5047524;28;20015;-73
2024/01/09 03:26:14;;;;;;;;;;;-3.80;99.90;;;;;;5038309;28;20019;-73
2024/01/09 03:28:40;;;;;;;;;;;-3.80;99.90;;;;;;5041124;28;19921;-74
2024/01/09 03:31:06;;;;;;;;;;;-3.80;99.90;;;;;;5046784;28;20275;-74
2024/01/09 03:33:31;;;;;;;;;;;-3.80;99.90;;;;;;5048200;28;19928;-73
2024/01/09 03:35:57;;;;;;;;;;;-3.80;99.90;;;;;;5046284;28;19925;-73
2024/01/09 03:38:22;;;;;;;;;;;-3.90;99.90;;;;;;5047850;28;19920;-74
2024/01/09 03:40:48;;;;;;;;;;;-3.90;99.90;;;;;;5047876;28;20273;-74
2024/01/09 03:43:14;;;;;;;;;;;-2.80;99.90;;;;;;5046629;28;20365;-74
2024/01/09 03:45:39;;;;;;;;;;;-3.90;99.90;;;;;;5047502;28;20396;-74
2024/01/09 03:48:05;;;;;;;;;;;-3.90;99.90;;;;;;5046734;28;19936;-74
2024/01/09 03:50:31;;;;;;;;;;;-3.90;99.90;;;;;;5047492;28;19960;-74
2024/01/09 03:52:56;;;;;;;;;;;-3.90;99.90;;;;;;5047565;28;20019;-74
2024/01/09 03:55:22;;;;;;;;;;;-3.90;99.90;;;;;;5045595;28;20360;-74
2024/01/09 03:57:47;;;;;;;;;;;-3.90;99.90;;;;;;5039463;28;19939;-74
2024/01/09 04:00:13;;;;;;;;;;;-4.00;99.90;;;;;;5029119;28;19928;-74
2024/01/09 04:02:38;;;;;;;;;;;-4.00;99.90;;;;;;5043971;28;19928;-74
2024/01/09 04:05:06;;;;;;;;;;;-4.00;99.90;;;;;;5043054;28;20368;-74
2024/01/09 04:07:31;;;;;;;;;;;-4.00;99.90;;;;;;5055404;28;19928;-74
2024/01/09 04:09:57;;;;;;;;;;;-4.00;99.90;;;;;;5040710;28;19920;-74
2024/01/09 04:12:22;;;;;;;;;;;-4.00;99.90;;;;;;5047283;28;19917;-74
2024/01/09 04:14:48;;;;;;;;;;;-4.00;99.90;;;;;;5057477;28;19926;-74
2024/01/09 04:17:14;;;;;;;;;;;-3.70;99.90;;;;;;5039759;28;19942;-74
2024/01/09 04:19:39;;;;;;;;;;;-4.10;99.90;;;;;;5053256;28;19971;-74
2024/01/09 04:22:06;;;;;;;;;;;-4.10;99.90;;;;;;5042381;28;19924;-75
2024/01/09 04:24:32;;;;;;;;;;;-4.10;99.90;;;;;;5033478;28;20027;-74
2024/01/09 04:26:57;;;;;;;;;;;-4.10;99.90;;;;;;5037647;28;20391;-74
2024/01/09 04:29:23;;;;;;;;;;;-4.20;99.90;;;;;;5049376;28;19952;-74
2024/01/09 04:31:49;;;;;;;;;;;-4.10;99.90;;;;;;5043283;28;19920;-74
2024/01/09 04:34:14;;;;;;;;;;;-4.20;99.90;;;;;;5046050;28;20019;-75
2024/01/09 04:36:40;;;;;;;;;;;-4.20;99.90;;;;;;5053966;28;19920;-75
2024/01/09 04:39:05;;;;;;;;;;;-4.20;99.90;;;;;;5037042;28;20353;-75
2024/01/09 04:41:31;;;;;;;;;;;-4.20;99.90;;;;;;5053708;28;19967;-75
2024/01/09 04:43:56;;;;;;;;;;;-4.20;99.90;;;;;;5050720;28;19928;-75
2024/01/09 04:46:22;;;;;;;;;;;-4.20;99.90;;;;;;5051877;28;19924;-75
2024/01/09 04:48:47;;;;;;;;;;;-4.20;99.90;;;;;;5053165;28;19924;-75
2024/01/09 04:51:13;;;;;;;;;;;-4.20;99.90;;;;;;5053327;28;19920;-75
2024/01/09 04:53:38;;;;;;;;;;;-4.20;99.90;;;;;;5061651;28;19931;-75
2024/01/09 04:56:05;;;;;;;;;;;-4.30;99.90;;;;;;5048600;28;19925;-76
2024/01/09 04:58:31;;;;;;;;;;;-4.30;99.90;;;;;;5051256;28;20379;-75
2024/01/09 05:00:56;;;;;;;;;;;-4.30;99.90;;;;;;5049996;28;19928;-75
2024/01/09 05:03:22;;;;;;;;;;;-4.30;99.90;;;;;;5035101;28;20429;-75
2024/01/09 05:05:47;;;;;;;;;;;-3.80;99.90;;;;;;5031874;28;19924;-74
2024/01/09 05:08:13;;;;;;;;;;;-4.30;99.90;;;;;;5033551;28;19975;-75
2024/01/09 05:10:38;;;;;;;;;;;-4.30;99.90;;;;;;5039413;28;20291;-75
2024/01/09 05:13:04;;;;;;;;;;;-4.30;99.90;;;;;;5036068;28;20383;-75
2024/01/09 05:15:30;;;;;;;;;;;-4.40;99.90;;;;;;5052276;28;20379;-74
2024/01/09 05:17:55;;;;;;;;;;;-4.40;99.90;;;;;;5052431;28;19921;-74
2024/01/09 05:20:21;;;;;;;;;;;-4.40;99.90;;;;;;5052329;28;19920;-74
2024/01/09 05:22:47;;;;;;;;;;;-4.40;99.90;;;;;;5052881;28;19929;-74
2024/01/09 05:25:12;;;;;;;;;;;-4.40;99.90;;;;;;5053280;28;20261;-74
2024/01/09 05:27:38;;;;;;;;;;;-4.40;99.90;;;;;;5041875;28;19928;-74
2024/01/09 05:30:07;;;;;;;;;;;-4.40;99.90;;;;;;5052280;28;20454;-74
2024/01/09 05:32:32;;;;;;;;;;;-4.50;99.90;;;;;;5039916;28;20233;-74
2024/01/09 05:34:59;;;;;;;;;;;-4.50;99.90;;;;;;5049781;28;19920;-74
2024/01/09 05:37:24;;;;;;;;;;;-4.50;99.90;;;;;;5052391;28;19925;-73
2024/01/09 05:39:50;;;;;;;;;;;-4.50;99.90;;;;;;5050969;28;19932;-75
2024/01/09 05:42:15;;;;;;;;;;;-4.40;99.90;;;;;;5048559;28;20348;-76
2024/01/09 05:44:41;;;;;;;;;;;-4.50;99.90;;;;;;5048242;28;19949;-75
2024/01/09 05:47:07;;;;;;;;;;;-3.40;99.90;;;;;;5035701;28;19924;-74
2024/01/09 05:49:32;;;;;;;;;;;-4.50;99.90;;;;;;5050023;28;19986;-74
2024/01/09 05:51:58;;;;;;;;;;;-4.60;99.90;;;;;;5045352;28;19931;-74
2024/01/09 05:54:23;;;;;;;;;;;-4.60;99.90;;;;;;5052441;28;20348;-74
2024/01/09 05:56:49;;;;;;;;;;;-4.60;99.90;;;;;;5049633;28;20403;-74
2024/01/09 05:59:15;;;;;;;;;;;-4.60;99.90;;;;;;5042002;28;19959;-74
2024/01/09 06:01:40;;;;;;;;;;;-4.60;99.90;;;;;;5030739;28;19921;-74
2024/01/09 06:04:06;;;;;;;;;;;-4.60;99.90;;;;;;5045216;28;20011;-75
2024/01/09 06:06:32;;;;;;;;;;;-4.60;99.90;;;;;;5049369;28;19921;-75
2024/01/09 06:08:57;;;;;;;;;;;-4.60;99.90;;;;;;5049307;28;19928;-75
2024/01/09 06:11:23;;;;;;;;;;;-4.60;99.90;;;;;;5052299;28;19982;-75
2024/01/09 06:13:48;;;;;;;;;;;-4.60;99.90;;;;;;5048703;28;19992;-75
2024/01/09 06:16:14;;;;;;;;;;;-4.60;99.90;;;;;;5076632;28;19924;-75
2024/01/09 06:18:39;;;;;;;;;;;-4.60;99.90;;;;;;5032496;28;20295;-74
2024/01/09 06:21:05;;;;;;;;;;;-4.60;99.90;;;;;;5051763;28;20379;-74
2024/01/09 06:23:30;;;;;;;;;;;-4.70;99.90;;;;;;5050950;28;20012;-75
2024/01/09 06:25:56;;;;;;;;;;;-4.60;99.90;;;;;;5046582;28;20376;-75
2024/01/09 06:28:22;;;;;;;;;;;-4.70;99.90;;;;;;5069197;28;20360;-74
2024/01/09 06:30:47;;;;;;;;;;;-4.70;99.90;;;;;;5050238;28;20372;-75
2024/01/09 06:33:13;;;;;;;;;;;-4.70;99.90;;;;;;5033590;28;19970;-75
2024/01/09 06:35:38;;;;;;;;;;;-4.70;99.90;;;;;;5032342;28;19921;-75
2024/01/09 06:38:04;;;;;;;;;;;-4.70;99.90;;;;;;5037332;28;20456;-75
2024/01/09 06:40:29;;;;;;;;;;;-4.40;99.90;;;;;;5047901;28;20004;-75
2024/01/09 06:42:55;;;;;;;;;;;-4.70;99.90;;;;;;5049992;28;20054;-76
2024/01/09 06:45:21;;;;;;;;;;;-4.70;99.90;;;;;;5050857;28;19980;-76
2024/01/09 06:47:46;;;;;;;;;;;-4.70;99.90;;;;;;5045617;28;19928;-76
2024/01/09 06:50:12;;;;;;;;;;;-4.80;99.90;;;;;;5039417;28;19928;-75
2024/01/09 06:52:38;;;;;;;;;;;-4.80;99.90;;;;;;5050697;28;19963;-76
2024/01/09 06:55:04;;;;;;;;;;;-4.80;99.90;;;;;;5049897;28;20015;-75
2024/01/09 06:57:29;;;;;;;;;;;-4.80;99.90;;;;;;5049005;28;19962;-75
2024/01/09 06:59:55;;;;;;;;;;;-4.80;99.90;;;;;;5045897;28;19927;-75
2024/01/09 07:02:21;;;;;;;;;;;-4.80;99.90;;;;;;5066150;28;19968;-75
2024/01/09 07:04:47;;;;;;;;;;;-5.00;99.90;;;;;;5030437;28;19976;-75
2024/01/09 07:07:12;;;;;;;;;;;-4.80;99.90;;;;;;5031362;28;19964;-76
2024/01/09 07:09:38;;;;;;;;;;;-4.90;99.90;;;;;;5051441;28;19921;-75
2024/01/09 07:12:04;;;;;;;;;;;-4.80;99.90;;;;;;5067583;28;19936;-75
2024/01/09 07:14:30;;;;;;;;;;;-4.90;99.90;;;;;;5064649;28;20402;-75
2024/01/09 07:16:55;;;;;;;;;;;-4.90;99.90;;;;;;5066428;28;19921;-75
2024/01/09 07:19:21;;;;;;;;;;;-4.90;99.90;;;;;;5050071;28;19916;-74
2024/01/09 07:21:46;;;;;;;;;;;-4.90;99.90;;;;;;5051054;28;19924;-74
2024/01/09 07:24:12;;;;;;;;;;;-4.90;99.90;;;;;;5036394;28;19921;-74
2024/01/09 07:26:38;;;;;;;;;;;-4.90;99.90;;;;;;5038422;28;19921;-73
2024/01/09 07:29:04;;;;;;;;;;;-4.90;99.90;;;;;;5047952;28;19924;-74
2024/01/09 07:31:29;;;;;;;;;;;-4.90;99.90;;;;;;5038838;28;19920;-74
2024/01/09 07:33:55;;;;;;;;;;;-4.90;99.90;;;;;;5029903;28;19921;-74
2024/01/09 07:36:21;;;;;;;;;;;-4.90;99.90;;;;;;5040583;28;20285;-74
2024/01/09 07:38:47;;;;;;;;;;;-4.90;99.90;;;;;;5058254;28;19931;-74
2024/01/09 07:41:13;;;;;;;;;;;-4.90;99.90;;;;;;5040979;28;20013;-74
2024/01/09 07:43:38;;;;;;;;;;;-4.90;99.90;;;;;;5048988;28;20507;-74
2024/01/09 07:46:04;;;;;;;;;;;-4.90;99.90;;;;;;5067608;28;20561;-73
2024/01/09 07:48:30;;;;;;;;;;;-5.00;99.90;;;;;;5050485;28;20273;-74
2024/01/09 07:50:56;;;;;;;;;;;-5.00;99.90;;;;;;5050813;28;19924;-74
2024/01/09 07:53:22;;;;;;;;;;;-5.00;99.90;;;;;;5070132;28;19916;-74
2024/01/09 07:55:47;;;;;;;;;;;-5.00;99.90;;;;;;5052214;28;19921;-73
2024/01/09 07:58:13;;;;;;;;;;;-5.00;99.90;;;;;;5051028;28;20371;-74
2024/01/09 08:00:38;;;;;;;;;;;-5.00;99.90;;;;;;5045743;28;19921;-73
2024/01/09 08:03:05;;;;;;;;;;;-4.90;99.90;;;;;;5043518;28;19935;-75
2024/01/09 08:05:30;;;;;;;;;;;-4.90;99.90;;;;;;5037600;28;19917;-75
2024/01/09 08:07:56;;;;;;;;;;;-4.90;99.90;;;;;;5040794;28;19931;-74
2024/01/09 08:10:21;;;;;;;;;;;-4.90;99.90;;;;;;5050011;28;20032;-75
2024/01/09 08:12:47;;;;;;;;;;;-4.90;99.90;;;;;;5051941;28;20027;-75
2024/01/09 08:15:13;;;;;;;;;;;-4.90;99.90;;;;;;5048369;28;19921;-73
2024/01/09 08:17:38;;;;;;;;;;;-4.90;99.90;;;;;;5053047;28;19924;-74
2024/01/09 08:20:04;;;;;;;;;;;-4.90;99.90;;;;;;5052881;28;20026;-74
2024/01/09 08:22:31;;;;;;;;;;;-4.90;99.90;;;;;;5049493;28;19920;-74
2024/01/09 08:24:56;;;;;;;;;;;-4.80;99.90;;;;;;5037919;28;20454;-75
2024/01/09 08:27:22;;;;;;;;;;;-4.80;99.90;;;;;;5052293;28;20259;-74
2024/01/09 08:29:47;;;;;;;;;;;-4.80;99.90;;;;;;5050217;28;19924;-74
2024/01/09 08:32:15;;;;;;;;;;;-4.80;99.90;;;;;;5053620;28;19916;-74
2024/01/09 08:34:41;;;;;;;;;;;-4.70;99.90;;;;;;5050743;28;19931;-74
2024/01/09 08:37:06;;;;;;;;;;;-4.70;99.90;;;;;;5051093;28;20010;-74
2024/01/09 08:39:32;;;;;;;;;;;-4.70;99.90;;;;;;5052747;28;19926;-75
2024/01/09 08:41:57;;;;;;;;;;;-4.70;99.90;;;;;;5068091;28;19924;-74
2024/01/09 08:44:25;;;;;;;;;;;-4.60;99.90;;;;;;5053783;28;19923;-75
2024/01/09 08:46:50;;;;;;;;;;;-4.60;99.90;;;;;;5032781;28;19924;-74
2024/01/09 08:49:16;;;;;;;;;;;-4.60;99.90;;;;;;5053445;28;20019;-73
2024/01/09 08:51:41;;;;;;;;;;;-3.80;99.90;;;;;;5068375;28;19921;-75
2024/01/09 08:54:07;;;;;;;;;;;-4.50;99.90;;;;;;5051639;28;20069;-73
2024/01/09 08:56:33;;;;;;;;;;;-4.50;99.90;;;;;;5071162;28;19927;-74
2024/01/09 08:58:58;;;;;;;;;;;-4.40;99.90;;;;;;5051221;28;19927;-73
2024/01/09 09:01:25;;;;;;;;;;;-4.40;99.90;;;;;;5045808;28;19929;-73
2024/01/09 09:03:51;;;;;;;;;;;-4.30;99.90;;;;;;5033038;28;19928;-73
2024/01/09 09:06:17;;;;;;;;;;;-4.30;99.90;;;;;;5044959;28;19924;-73
2024/01/09 09:08:43;;;;;;;;;;;-4.30;99.90;;;;;;5049569;28;20319;-73
2024/01/09 09:11:10;;;;;;;;;;;-4.20;99.90;;;;;;5051314;28;19927;-74
2024/01/09 09:13:35;;;;;;;;;;;-4.20;99.90;;;;;;5049842;28;19920;-73
2024/01/09 09:16:01;;;;;;;;;;;-4.20;99.90;;;;;;5042031;28;20300;-73
2024/01/09 09:18:27;;;;;;;;;;;-3.80;99.90;;;;;;5032605;28;20291;-74
2024/01/09 09:20:53;;;;;;;;;;;-4.10;99.90;;;;;;5059713;28;20387;-73
2024/01/09 09:23:18;;;;;;;;;;;-4.10;99.90;;;;;;5052528;28;19920;-74
2024/01/09 09:25:44;;;;;;;;;;;-4.00;99.90;;;;;;5050727;28;19928;-74
2024/01/09 09:28:09;;;;;;;;;;;-4.00;99.90;;;;;;5051290;28;19943;-74
2024/01/09 09:30:35;;;;;;;;;;;-3.90;99.90;;;;;;5053217;28;20269;-73
2024/01/09 09:33:00;;;;;;;;;;;-3.90;99.90;;;;;;5051149;28;19920;-74
2024/01/09 09:35:26;;;;;;;;;;;-3.90;99.90;;;;;;5070324;28;19924;-74
2024/01/09 09:37:51;;;;;;;;;;;-3.80;99.90;;;;;;5051638;28;20379;-74
2024/01/09 09:40:17;;;;;;;;;;;-3.80;99.90;;;;;;5047603;28;19925;-74
2024/01/09 09:42:43;;;;;;;;;;;-3.70;99.90;;;;;;5048806;28;19927;-73
2024/01/09 09:45:13;;;;;;;;;;;-3.70;99.90;;;;;;5032334;28;20292;-73
2024/01/09 09:47:39;;;;;;;;;;;-3.60;99.90;;;;;;5031879;28;20261;-74
2024/01/09 09:50:05;;;;;;;;;;;-3.60;99.90;;;;;;5049259;28;19924;-74
2024/01/09 09:52:32;;;;;;;;;;;-3.50;99.90;;;;;;5069730;28;20400;-73
2024/01/09 09:54:58;;;;;;;;;;;-3.50;99.90;;;;;;5050973;28;20388;-74
2024/01/09 09:57:24;;;;;;;;;;;-3.40;99.90;;;;;;5070437;28;19975;-74
2024/01/09 09:59:50;;;;;;;;;;;-3.40;99.90;;;;;;5049145;28;19974;-73
2024/01/09 10:02:26;;;;;;;;;;;-3.30;99.90;;;;;;5046779;28;19920;-75
2024/01/09 10:04:52;;;;;;;;;;;-3.30;99.90;;;;;;5050863;28;19997;-73
2024/01/09 10:07:19;;;;;;;;;;;-3.20;99.90;;;;;;5050223;28;19921;-74
2024/01/09 10:09:48;;;;;;;;;;;-3.20;99.90;;;;;;5050197;28;19966;-73
2024/01/09 10:12:14;;;;;;;;;;;-3.10;99.90;;;;;;5069782;28;20355;-73
2024/01/09 10:15:00;;;;;;;;;;;-3.10;99.90;;;;;;5042502;28;19921;-73
2024/01/09 10:17:26;;;;;;;;;;;-3.00;99.90;;;;;;5043854;28;20008;-73
2024/01/09 10:19:51;;;;;;;;;;;-2.70;99.90;;;;;;5044967;28;20316;-74
2024/01/09 10:22:17;;;;;;;;;;;-2.90;99.90;;;;;;5028487;28;20284;-73
2024/01/09 10:24:42;;;;;;;;;;;-2.80;99.90;;;;;;5030002;28;19927;-74
2024/01/09 10:27:08;;;;;;;;;;;-2.70;99.90;;;;;;5035890;28;19931;-74
2024/01/09 10:29:33;;;;;;;;;;;-2.70;99.90;;;;;;5045762;28;19920;-74
2024/01/09 10:31:59;;;;;;;;;;;-2.70;99.90;;;;;;5046800;28;20045;-74
2024/01/09 10:34:26;;;;;;;;;;;-2.60;99.90;;;;;;5049512;28;20361;-74
2024/01/09 10:36:53;;;;;;;;;;;-2.50;99.90;;;;;;5046539;28;20015;-75
2024/01/09 10:39:18;;;;;;;;;;;-2.50;99.90;;;;;;5047839;28;19925;-74
2024/01/09 10:41:44;;;;;;;;;;;-2.40;99.90;;;;;;5047268;28;19928;-74
2024/01/09 10:44:13;;;;;;;;;;;-2.00;99.90;;;;;;5045568;28;19927;-75
2024/01/09 10:46:39;;;;;;;;;;;-1.40;99.90;;;;;;5045507;28;19928;-74
2024/01/09 10:49:05;;;;;;;;;;;-0.70;99.90;;;;;;5048283;28;21261;-75
2024/01/09 10:51:31;;;;;;;;;;;0.10;99.90;;;;;;5047416;28;19920;-75
2024/01/09 10:53:57;;;;;;;;;;;1.10;99.90;;;;;;5047669;28;19936;-75
2024/01/09 10:56:22;;;;;;;;;;;2.10;99.90;;;;;;5048724;28;20467;-75
2024/01/09 10:58:49;;;;;;;;;;;3.30;99.90;;;;;;5041880;28;19928;-75
2024/01/09 11:01:15;;;;;;;;;;;4.60;99.90;;;;;;5037681;28;19925;-75
2024/01/09 11:03:41;;;;;;;;;;;5.90;99.90;;;;;;5039196;28;20147;-75
2024/01/09 11:06:08;;;;;;;;;;;7.10;99.90;;;;;;5037675;28;20015;-74
2024/01/09 11:08:35;;;;;;;;;;;8.10;99.90;;;;;;5037905;28;19928;-72
2024/01/09 11:11:02;;;;;;;;;;;8.80;99.90;;;;;;5045805;28;20201;-75
2024/01/09 11:13:27;;;;;;;;;;;9.10;99.90;;;;;;5046827;28;19921;-72
2024/01/09 11:15:54;;;;;;;;;;;9.10;99.90;;;;;;5049863;28;19925;-73
2024/01/09 11:18:22;;;;;;;;;;;8.80;99.90;;;;;;5050223;28;19921;-75
2024/01/09 11:20:57;;;;;;;;;;;8.30;99.90;;;;;;5068654;28;19921;-73
2024/01/09 11:23:42;;;;;;;;;;;9.30;99.90;;;;;;5046266;28;19921;-75
2024/01/09 11:26:07;;;;;;;;;;;6.50;98.30;;;;;;5058461;28;19924;-73
2024/01/09 11:28:37;;;;;;;;;;;5.30;98.20;;;;;;5053874;28;19924;-73
2024/01/09 11:31:06;;;;;;;;;;;4.40;98.60;;;;;;5053389;28;20694;-73
2024/01/09 11:33:32;;;;;;;;;;;3.70;98.90;;;;;;5053351;28;19920;-75
2024/01/09 11:36:07;;;;;;;;;;;3.20;99.10;;;;;;5071606;28;20365;-71
2024/01/09 11:38:33;;;;;;;;;;;2.60;99.20;;;;;;5053968;28;19920;-74
2024/01/09 11:41:05;;;;;;;;;;;2.20;99.30;;;;;;5041859;28;19920;-73
2024/01/09 11:43:50;;;;;;;;;;;1.80;99.50;;;;;;5055155;28;20415;-74
2024/01/09 11:46:16;;;;;;;;;;;1.80;99.80;;;;;;5045289;28;19925;-74
2024/01/09 11:48:43;;;;;;;;;;;1.10;99.90;;;;;;5034221;28;19921;-72
2024/01/09 11:51:09;;;;;;;;;;;0.90;99.90;;;;;;5048171;28;20538;-72
2024/01/09 11:53:35;;;;;;;;;;;0.80;99.90;;;;;;5050263;28;19921;-72
2024/01/09 11:56:01;;;;;;;;;;;0.70;99.90;;;;;;5064761;28;20411;-72
2024/01/09 11:58:27;;;;;;;;;;;0.60;99.90;;;;;;5041847;28;20271;-72
2024/01/09 12:00:52;;;;;;;;;;;0.60;99.90;;;;;;5051548;28;20413;-72
2024/01/09 12:03:18;;;;;;;;;;;1.00;99.90;;;;;;5061984;28;19982;-72
2024/01/09 12:05:43;;;;;;;;;;;2.00;99.90;;;;;;5070162;28;19920;-72
2024/01/09 12:08:09;;;;;;;;;;;3.40;99.90;;;;;;5070460;28;19921;-73
2024/01/09 12:10:35;;;;;;;;;;;5.00;99.90;;;;;;5065314;28;19920;-72
2024/01/09 12:13:02;;;;;;;;;;;6.80;99.90;;;;;;5038522;28;19923;-74
2024/01/09 12:15:27;;;;;;;;;;;8.60;99.90;;;;;;5050251;28;20421;-74
2024/01/09 12:17:56;;;;;;;;;;;10.60;99.90;;;;;;5049199;28;19920;-74
2024/01/09 12:20:21;;;;;;;;;;;11.70;99.90;;;;;;5046254;28;19920;-74
2024/01/09 12:22:47;;;;;;;;;;;12.80;99.90;;;;;;5037239;28;20316;-74
2024/01/09 12:25:13;;;;;;;;;;;13.00;99.00;;;;;;5033445;28;20188;-74
2024/01/09 12:27:39;;;;;;;;;;;12.60;98.00;;;;;;5044142;28;19920;-73
2024/01/09 12:30:06;;;;;;;;;;;11.90;97.00;;;;;;5051846;28;19924;-73
2024/01/09 12:32:32;;;;;;;;;;;11.00;96.10;;;;;;5035384;28;19928;-73
2024/01/09 12:34:57;;;;;;;;;;;10.10;95.20;;;;;;5053593;28;20018;-74
2024/01/09 12:37:24;;;;;;;;;;;10.00;96.80;;;;;;5041402;28;19945;-73
2024/01/09 12:40:09;;;;;;;;;;;10.10;97.70;;;;;;5036001;28;19990;-75
2024/01/09 12:42:34;;;;;;;;;;;11.00;98.60;;;;;;5054331;28;19920;-74
2024/01/09 12:45:00;;;;;;;;;;;12.30;98.30;;;;;;5050116;28;19928;-75
2024/01/09 12:47:26;;;;;;;;;;;13.00;96.40;;;;;;5053551;28;20287;-75
2024/01/09 12:49:51;;;;;;;;;;;12.30;94.30;;;;;;5052464;28;20027;-74
2024/01/09 12:52:18;;;;;;;;;;;11.00;92.60;;;;;;5054632;28;19928;-75
2024/01/09 12:54:47;;;;;;;;;;;10.60;91.40;;;;;;5051387;28;19924;-74
2024/01/09 12:57:13;;;;;;;;;;;9.00;91.10;;;;;;5052435;28;20314;-74
2024/01/09 12:59:45;;;;;;;;;;;7.30;90.80;;;;;;5052140;28;19920;-74
2024/01/09 13:02:10;;;;;;;;;;;6.40;90.70;;;;;;5053142;28;20023;-73
2024/01/09 13:04:36;;;;;;;;;;;5.50;91.10;;;;;;5048892;28;20023;-74
2024/01/09 13:07:03;;;;;;;;;;;4.70;91.10;;;;;;5053156;28;19967;-74
2024/01/09 13:09:29;;;;;;;;;;;4.10;91.50;;;;;;5046954;28;19920;-74
2024/01/09 13:11:54;;;;;;;;;;;3.50;92.10;;;;;;5035953;28;19990;-74
2024/01/09 13:14:20;;;;;;;;;;;3.10;92.70;;;;;;5051426;28;20417;-74
2024/01/09 13:16:46;;;;;;;;;;;2.70;93.10;;;;;;5053061;28;19924;-74
2024/01/09 13:19:13;;;;;;;;;;;2.30;93.60;;;;;;5052273;28;19920;-75
2024/01/09 13:21:39;;;;;;;;;;;2.00;94.00;;;;;;5052586;28;19917;-73
2024/01/09 13:24:05;;;;;;;;;;;1.80;94.50;;;;;;5070459;28;19924;-73
2024/01/09 13:26:31;;;;;;;;;;;1.50;95.00;;;;;;5048149;28;20043;-74
2024/01/09 13:28:56;;;;;;;;;;;1.30;95.50;;;;;;5051726;28;20273;-73
2024/01/09 13:31:22;;;;;;;;;;;1.10;96.00;;;;;;5052690;28;19951;-73
2024/01/09 13:33:48;;;;;;;;;;;1.00;96.40;;;;;;5043097;28;19923;-73
2024/01/09 13:36:13;;;;;;;;;;;0.90;96.70;;;;;;5050995;28;19921;-73
2024/01/09 13:38:39;;;;;;;;;;;0.70;96.90;;;;;;5033672;28;20383;-73
2024/01/09 13:41:04;;;;;;;;;;;0.60;97.30;;;;;;5033026;28;19925;-73
2024/01/09 13:43:30;;;;;;;;;;;0.50;97.60;;;;;;5052542;28;19920;-73
2024/01/09 13:45:58;;;;;;;;;;;0.40;98.00;;;;;;5049793;28;19942;-73
2024/01/09 13:48:23;;;;;;;;;;;0.30;98.20;;;;;;5068313;28;20268;-73
2024/01/09 13:50:49;;;;;;;;;;;0.30;98.50;;;;;;5068787;28;19920;-73
2024/01/09 13:53:15;;;;;;;;;;;0.20;98.70;;;;;;5070043;28;19921;-73
2024/01/09 13:55:41;;;;;;;;;;;0.10;99.00;;;;;;5070424;28;20009;-73
2024/01/09 13:58:07;;;;;;;;;;;0.10;99.20;;;;;;5049724;28;20066;-73
2024/01/09 14:00:32;;;;;;;;;;;0.00;99.50;;;;;;5051350;28;20007;-73
2024/01/09 14:02:59;;;;;;;;;;;0.00;99.70;;;;;;5051419;28;19920;-73
2024/01/09 14:05:25;;;;;;;;;;;0.10;99.90;;;;;;5048933;28;19931;-74
2024/01/09 14:07:51;;;;;;;;;;;-0.10;99.90;;;;;;5046326;28;20289;-74
2024/01/09 14:10:16;;;;;;;;;;;-0.20;99.90;;;;;;5049321;28;20422;-73
2024/01/09 14:12:42;;;;;;;;;;;-0.20;99.90;;;;;;5041797;28;19923;-74